sensor_id;sensor_type;location;lat;lon;timestamp;P1;durP1;ratioP1;P2;durP2;ratioP2
4021;SDS011;2025;48.260;16.432;2022-07-15T00:01:54;1.40;;;1.40;;
4021;SDS011;2025;48.260;16.432;2022-07-15T00:04:26;1.52;;;1.40;;
4021;SDS011;2025;48.260;16.432;2022-07-15T00:06:53;3.00;;;1.30;;
4021;SDS011;2025;48.260;16.432;2022-07-15T00:09:35;1.38;;;1.23;;
4021;SDS011;2025;48.260;16.432;2022-07-15T00:12:27;2.55;;;1.30;;
4021;SDS011;2025;48.260;16.432;2022-07-15T00:14:54;2.13;;;1.60;;
4021;SDS011;2025;48.260;16.432;2022-07-15T00:17:25;2.72;;;1.50;;
4021;SDS011;2025;48.260;16.432;2022-07-15T00:19:55;4.57;;;1.50;;
4021;SDS011;2025;48.260;16.432;2022-07-15T00:22:37;1.70;;;1.60;;
4021;SDS011;2025;48.260;16.432;2022-07-15T00:25:42;1.70;;;1.60;;
4021;SDS011;2025;48.260;16.432;2022-07-15T00:31:20;1.60;;;1.40;;
4021;SDS011;2025;48.260;16.432;2022-07-15T00:33:55;4.65;;;1.58;;
4021;SDS011;2025;48.260;16.432;2022-07-15T00:36:24;1.50;;;1.48;;
4021;SDS011;2025;48.260;16.432;2022-07-15T00:38:51;2.10;;;1.40;;
4021;SDS011;2025;48.260;16.432;2022-07-15T00:41:18;1.10;;;1.10;;
4021;SDS011;2025;48.260;16.432;2022-07-15T00:44:06;1.10;;;1.10;;
4021;SDS011;2025;48.260;16.432;2022-07-15T00:46:35;3.42;;;1.65;;
4021;SDS011;2025;48.260;16.432;2022-07-15T00:49:06;4.15;;;1.92;;
4021;SDS011;2025;48.260;16.432;2022-07-15T00:51:35;2.15;;;2.00;;
4021;SDS011;2025;48.260;16.432;2022-07-15T00:54:06;3.83;;;1.88;;
4021;SDS011;2025;48.260;16.432;2022-07-15T00:56:36;6.45;;;2.00;;
4021;SDS011;2025;48.260;16.432;2022-07-15T00:59:09;2.65;;;2.00;;
4021;SDS011;2025;48.260;16.432;2022-07-15T01:01:40;4.53;;;2.80;;
4021;SDS011;2025;48.260;16.432;2022-07-15T01:04:09;8.00;;;2.50;;
4021;SDS011;2025;48.260;16.432;2022-07-15T01:06:38;3.22;;;2.60;;
4021;SDS011;2025;48.260;16.432;2022-07-15T01:09:05;4.03;;;2.75;;
4021;SDS011;2025;48.260;16.432;2022-07-15T01:11:33;3.08;;;2.75;;
4021;SDS011;2025;48.260;16.432;2022-07-15T01:14:05;6.97;;;2.70;;
4021;SDS011;2025;48.260;16.432;2022-07-15T01:16:35;3.40;;;3.20;;
4021;SDS011;2025;48.260;16.432;2022-07-15T01:19:04;3.25;;;2.90;;
4021;SDS011;2025;48.260;16.432;2022-07-15T01:21:32;3.88;;;3.50;;
4021;SDS011;2025;48.260;16.432;2022-07-15T01:26:29;3.50;;;3.30;;
4021;SDS011;2025;48.260;16.432;2022-07-15T01:28:59;4.05;;;3.80;;
4021;SDS011;2025;48.260;16.432;2022-07-15T01:31:43;4.03;;;3.83;;
4021;SDS011;2025;48.260;16.432;2022-07-15T01:34:11;4.22;;;3.92;;
4021;SDS011;2025;48.260;16.432;2022-07-15T01:36:41;6.25;;;4.50;;
4021;SDS011;2025;48.260;16.432;2022-07-15T01:39:08;7.45;;;4.32;;
4021;SDS011;2025;48.260;16.432;2022-07-15T01:41:35;4.72;;;4.32;;
4021;SDS011;2025;48.260;16.432;2022-07-15T01:44:02;5.60;;;3.90;;
4021;SDS011;2025;48.260;16.432;2022-07-15T01:46:30;7.55;;;4.55;;
4021;SDS011;2025;48.260;16.432;2022-07-15T01:48:57;5.57;;;4.75;;
4021;SDS011;2025;48.260;16.432;2022-07-15T01:51:43;4.68;;;4.28;;
4021;SDS011;2025;48.260;16.432;2022-07-15T01:54:15;5.82;;;4.97;;
4021;SDS011;2025;48.260;16.432;2022-07-15T01:56:42;4.97;;;4.60;;
4021;SDS011;2025;48.260;16.432;2022-07-15T01:59:09;6.20;;;4.68;;
4021;SDS011;2025;48.260;16.432;2022-07-15T02:01:36;5.05;;;4.75;;
4021;SDS011;2025;48.260;16.432;2022-07-15T02:04:04;6.53;;;4.75;;
4021;SDS011;2025;48.260;16.432;2022-07-15T02:06:31;8.52;;;4.45;;
4021;SDS011;2025;48.260;16.432;2022-07-15T02:08:59;5.43;;;5.10;;
4021;SDS011;2025;48.260;16.432;2022-07-15T02:11:26;7.15;;;5.00;;
4021;SDS011;2025;48.260;16.432;2022-07-15T02:13:53;5.43;;;5.00;;
4021;SDS011;2025;48.260;16.432;2022-07-15T02:16:24;5.90;;;5.38;;
4021;SDS011;2025;48.260;16.432;2022-07-15T02:18:52;6.07;;;5.38;;
4021;SDS011;2025;48.260;16.432;2022-07-15T02:21:19;6.45;;;5.95;;
4021;SDS011;2025;48.260;16.432;2022-07-15T02:23:46;7.20;;;6.55;;
4021;SDS011;2025;48.260;16.432;2022-07-15T02:26:15;6.60;;;6.10;;
4021;SDS011;2025;48.260;16.432;2022-07-15T02:28:42;7.68;;;6.85;;
4021;SDS011;2025;48.260;16.432;2022-07-15T02:31:09;12.25;;;7.20;;
4021;SDS011;2025;48.260;16.432;2022-07-15T02:33:36;7.32;;;6.85;;
4021;SDS011;2025;48.260;16.432;2022-07-15T02:36:04;14.38;;;7.63;;
4021;SDS011;2025;48.260;16.432;2022-07-15T02:38:31;7.90;;;7.18;;
4021;SDS011;2025;48.260;16.432;2022-07-15T02:40:58;8.77;;;8.07;;
4021;SDS011;2025;48.260;16.432;2022-07-15T02:43:27;8.88;;;7.95;;
4021;SDS011;2025;48.260;16.432;2022-07-15T02:45:54;8.68;;;8.13;;
4021;SDS011;2025;48.260;16.432;2022-07-15T02:48:21;9.05;;;8.20;;
4021;SDS011;2025;48.260;16.432;2022-07-15T02:50:48;9.60;;;8.68;;
4021;SDS011;2025;48.260;16.432;2022-07-15T02:53:16;10.10;;;9.18;;
4021;SDS011;2025;48.260;16.432;2022-07-15T02:55:46;11.30;;;9.73;;
4021;SDS011;2025;48.260;16.432;2022-07-15T02:58:14;14.02;;;11.07;;
4021;SDS011;2025;48.260;16.432;2022-07-15T03:00:42;12.98;;;11.55;;
4021;SDS011;2025;48.260;16.432;2022-07-15T03:03:10;11.27;;;10.38;;
4021;SDS011;2025;48.260;16.432;2022-07-15T03:05:36;13.13;;;10.60;;
4021;SDS011;2025;48.260;16.432;2022-07-15T03:08:04;10.70;;;9.70;;
4021;SDS011;2025;48.260;16.432;2022-07-15T03:10:32;11.30;;;10.20;;
4021;SDS011;2025;48.260;16.432;2022-07-15T03:13:01;10.90;;;10.02;;
4021;SDS011;2025;48.260;16.432;2022-07-15T03:15:29;12.10;;;8.95;;
4021;SDS011;2025;48.260;16.432;2022-07-15T03:17:57;10.68;;;9.30;;
4021;SDS011;2025;48.260;16.432;2022-07-15T03:20:24;10.77;;;9.77;;
4021;SDS011;2025;48.260;16.432;2022-07-15T03:22:52;16.13;;;10.05;;
4021;SDS011;2025;48.260;16.432;2022-07-15T03:25:19;10.57;;;9.70;;
4021;SDS011;2025;48.260;16.432;2022-07-15T03:27:46;9.52;;;8.68;;
4021;SDS011;2025;48.260;16.432;2022-07-15T03:30:13;9.88;;;8.93;;
4021;SDS011;2025;48.260;16.432;2022-07-15T03:32:40;11.63;;;8.13;;
4021;SDS011;2025;48.260;16.432;2022-07-15T03:35:09;8.45;;;7.78;;
4021;SDS011;2025;48.260;16.432;2022-07-15T03:37:44;9.70;;;7.97;;
4021;SDS011;2025;48.260;16.432;2022-07-15T03:40:12;8.40;;;7.55;;
4021;SDS011;2025;48.260;16.432;2022-07-15T03:42:39;9.88;;;8.95;;
4021;SDS011;2025;48.260;16.432;2022-07-15T03:45:07;8.50;;;7.70;;
4021;SDS011;2025;48.260;16.432;2022-07-15T03:47:35;8.68;;;7.85;;
4021;SDS011;2025;48.260;16.432;2022-07-15T03:50:04;8.63;;;7.70;;
4021;SDS011;2025;48.260;16.432;2022-07-15T03:52:33;8.70;;;7.90;;
4021;SDS011;2025;48.260;16.432;2022-07-15T03:55:00;9.60;;;7.72;;
4021;SDS011;2025;48.260;16.432;2022-07-15T03:57:28;8.10;;;7.53;;
4021;SDS011;2025;48.260;16.432;2022-07-15T03:59:55;8.07;;;7.38;;
4021;SDS011;2025;48.260;16.432;2022-07-15T04:02:22;7.75;;;7.25;;
4021;SDS011;2025;48.260;16.432;2022-07-15T04:04:49;7.55;;;7.05;;
4021;SDS011;2025;48.260;16.432;2022-07-15T04:07:17;8.35;;;7.65;;
4021;SDS011;2025;48.260;16.432;2022-07-15T04:09:46;8.38;;;6.97;;
4021;SDS011;2025;48.260;16.432;2022-07-15T04:12:13;12.65;;;7.03;;
4021;SDS011;2025;48.260;16.432;2022-07-15T04:14:40;7.55;;;6.80;;
4021;SDS011;2025;48.260;16.432;2022-07-15T04:17:07;7.45;;;6.85;;
4021;SDS011;2025;48.260;16.432;2022-07-15T04:19:35;7.78;;;7.00;;
4021;SDS011;2025;48.260;16.432;2022-07-15T04:22:02;10.27;;;6.88;;
4021;SDS011;2025;48.260;16.432;2022-07-15T04:24:29;7.53;;;7.03;;
4021;SDS011;2025;48.260;16.432;2022-07-15T04:27:00;7.97;;;7.22;;
4021;SDS011;2025;48.260;16.432;2022-07-15T04:29:27;7.68;;;7.03;;
4021;SDS011;2025;48.260;16.432;2022-07-15T04:31:54;7.25;;;6.72;;
4021;SDS011;2025;48.260;16.432;2022-07-15T04:34:21;7.90;;;7.13;;
4021;SDS011;2025;48.260;16.432;2022-07-15T04:36:48;8.00;;;6.65;;
4021;SDS011;2025;48.260;16.432;2022-07-15T04:39:15;8.10;;;7.22;;
4021;SDS011;2025;48.260;16.432;2022-07-15T04:41:42;8.63;;;7.20;;
4021;SDS011;2025;48.260;16.432;2022-07-15T04:44:11;8.85;;;6.93;;
4021;SDS011;2025;48.260;16.432;2022-07-15T04:46:38;7.28;;;6.68;;
4021;SDS011;2025;48.260;16.432;2022-07-15T04:49:05;7.07;;;6.50;;
4021;SDS011;2025;48.260;16.432;2022-07-15T04:51:49;10.10;;;6.43;;
4021;SDS011;2025;48.260;16.432;2022-07-15T04:54:16;8.70;;;6.20;;
4021;SDS011;2025;48.260;16.432;2022-07-15T04:56:43;7.60;;;6.32;;
4021;SDS011;2025;48.260;16.432;2022-07-15T04:59:11;10.77;;;6.43;;
4021;SDS011;2025;48.260;16.432;2022-07-15T05:01:41;6.90;;;6.30;;
4021;SDS011;2025;48.260;16.432;2022-07-15T05:04:08;6.95;;;6.20;;
4021;SDS011;2025;48.260;16.432;2022-07-15T05:06:35;9.10;;;6.38;;
4021;SDS011;2025;48.260;16.432;2022-07-15T05:09:02;7.50;;;6.80;;
4021;SDS011;2025;48.260;16.432;2022-07-15T05:11:29;7.60;;;6.60;;
4021;SDS011;2025;48.260;16.432;2022-07-15T05:13:57;6.13;;;5.55;;
4021;SDS011;2025;48.260;16.432;2022-07-15T05:16:25;6.55;;;5.90;;
4021;SDS011;2025;48.260;16.432;2022-07-15T05:18:52;6.15;;;5.57;;
4021;SDS011;2025;48.260;16.432;2022-07-15T05:21:20;10.13;;;5.80;;
4021;SDS011;2025;48.260;16.432;2022-07-15T05:23:47;6.05;;;5.53;;
4021;SDS011;2025;48.260;16.432;2022-07-15T05:26:14;7.60;;;5.65;;
4021;SDS011;2025;48.260;16.432;2022-07-15T05:28:43;6.63;;;5.78;;
4021;SDS011;2025;48.260;16.432;2022-07-15T05:31:11;7.03;;;5.25;;
4021;SDS011;2025;48.260;16.432;2022-07-15T05:33:40;5.88;;;5.40;;
4021;SDS011;2025;48.260;16.432;2022-07-15T05:36:10;7.97;;;5.88;;
4021;SDS011;2025;48.260;16.432;2022-07-15T05:38:39;7.28;;;5.05;;
4021;SDS011;2025;48.260;16.432;2022-07-15T05:41:07;6.30;;;4.80;;
4021;SDS011;2025;48.260;16.432;2022-07-15T05:43:34;6.15;;;4.50;;
4021;SDS011;2025;48.260;16.432;2022-07-15T05:46:02;5.03;;;4.57;;
4021;SDS011;2025;48.260;16.432;2022-07-15T05:48:30;6.75;;;4.10;;
4021;SDS011;2025;48.260;16.432;2022-07-15T05:50:58;5.70;;;4.50;;
4021;SDS011;2025;48.260;16.432;2022-07-15T05:53:25;4.30;;;3.90;;
4021;SDS011;2025;48.260;16.432;2022-07-15T05:55:52;7.03;;;4.38;;
4021;SDS011;2025;48.260;16.432;2022-07-15T05:58:19;6.85;;;4.38;;
4021;SDS011;2025;48.260;16.432;2022-07-15T06:00:46;6.18;;;4.30;;
4021;SDS011;2025;48.260;16.432;2022-07-15T06:03:13;4.40;;;4.00;;
4021;SDS011;2025;48.260;16.432;2022-07-15T06:05:40;4.10;;;3.80;;
4021;SDS011;2025;48.260;16.432;2022-07-15T06:08:09;9.70;;;4.00;;
4021;SDS011;2025;48.260;16.432;2022-07-15T06:10:36;4.18;;;3.60;;
4021;SDS011;2025;48.260;16.432;2022-07-15T06:13:03;4.32;;;3.42;;
4021;SDS011;2025;48.260;16.432;2022-07-15T06:15:30;3.25;;;2.90;;
4021;SDS011;2025;48.260;16.432;2022-07-15T06:17:57;3.55;;;3.17;;
4021;SDS011;2025;48.260;16.432;2022-07-15T06:20:24;7.30;;;3.00;;
4021;SDS011;2025;48.260;16.432;2022-07-15T06:22:52;8.88;;;2.83;;
4021;SDS011;2025;48.260;16.432;2022-07-15T06:25:20;9.20;;;3.10;;
4021;SDS011;2025;48.260;16.432;2022-07-15T06:27:47;4.35;;;2.83;;
4021;SDS011;2025;48.260;16.432;2022-07-15T06:30:14;6.55;;;2.80;;
4021;SDS011;2025;48.260;16.432;2022-07-15T06:32:42;5.07;;;2.22;;
4021;SDS011;2025;48.260;16.432;2022-07-15T06:35:09;3.72;;;2.40;;
4021;SDS011;2025;48.260;16.432;2022-07-15T06:37:36;4.03;;;2.28;;
4021;SDS011;2025;48.260;16.432;2022-07-15T06:40:04;6.60;;;2.33;;
4021;SDS011;2025;48.260;16.432;2022-07-15T06:42:33;4.22;;;2.10;;
4021;SDS011;2025;48.260;16.432;2022-07-15T06:45:00;2.90;;;2.22;;
4021;SDS011;2025;48.260;16.432;2022-07-15T06:47:27;2.78;;;1.67;;
4021;SDS011;2025;48.260;16.432;2022-07-15T06:49:54;2.67;;;2.15;;
4021;SDS011;2025;48.260;16.432;2022-07-15T06:52:21;3.78;;;1.80;;
4021;SDS011;2025;48.260;16.432;2022-07-15T06:54:48;4.40;;;1.90;;
4021;SDS011;2025;48.260;16.432;2022-07-15T06:57:15;3.03;;;1.60;;
4021;SDS011;2025;48.260;16.432;2022-07-15T06:59:44;6.13;;;2.00;;
4021;SDS011;2025;48.260;16.432;2022-07-15T07:02:11;1.85;;;1.65;;
4021;SDS011;2025;48.260;16.432;2022-07-15T07:04:38;4.43;;;1.60;;
4021;SDS011;2025;48.260;16.432;2022-07-15T07:07:07;3.85;;;1.75;;
4021;SDS011;2025;48.260;16.432;2022-07-15T07:09:34;4.95;;;1.90;;
4021;SDS011;2025;48.260;16.432;2022-07-15T07:12:01;4.05;;;1.77;;
4021;SDS011;2025;48.260;16.432;2022-07-15T07:14:28;4.05;;;1.88;;
4021;SDS011;2025;48.260;16.432;2022-07-15T07:16:56;3.17;;;1.73;;
4021;SDS011;2025;48.260;16.432;2022-07-15T07:19:23;5.20;;;1.95;;
4021;SDS011;2025;48.260;16.432;2022-07-15T07:21:50;5.47;;;1.30;;
4021;SDS011;2025;48.260;16.432;2022-07-15T07:24:17;1.88;;;1.75;;
4021;SDS011;2025;48.260;16.432;2022-07-15T07:26:44;2.47;;;1.60;;
4021;SDS011;2025;48.260;16.432;2022-07-15T07:29:11;8.98;;;1.80;;
4021;SDS011;2025;48.260;16.432;2022-07-15T07:31:41;2.00;;;1.50;;
4021;SDS011;2025;48.260;16.432;2022-07-15T07:34:10;3.72;;;1.55;;
4021;SDS011;2025;48.260;16.432;2022-07-15T07:36:37;5.43;;;1.98;;
4021;SDS011;2025;48.260;16.432;2022-07-15T07:39:04;4.50;;;1.50;;
4021;SDS011;2025;48.260;16.432;2022-07-15T07:41:31;3.35;;;1.40;;
4021;SDS011;2025;48.260;16.432;2022-07-15T07:43:58;3.85;;;1.23;;
4021;SDS011;2025;48.260;16.432;2022-07-15T07:46:24;1.95;;;1.23;;
4021;SDS011;2025;48.260;16.432;2022-07-15T07:48:51;7.30;;;2.08;;
4021;SDS011;2025;48.260;16.432;2022-07-15T07:51:20;2.97;;;1.23;;
4021;SDS011;2025;48.260;16.432;2022-07-15T07:53:47;6.60;;;1.50;;
4021;SDS011;2025;48.260;16.432;2022-07-15T07:56:14;2.10;;;1.15;;
4021;SDS011;2025;48.260;16.432;2022-07-15T07:58:41;4.78;;;1.40;;
4021;SDS011;2025;48.260;16.432;2022-07-15T08:01:08;2.22;;;0.90;;
4021;SDS011;2025;48.260;16.432;2022-07-15T08:03:35;2.33;;;1.30;;
4021;SDS011;2025;48.260;16.432;2022-07-15T08:06:13;5.15;;;1.23;;
4021;SDS011;2025;48.260;16.432;2022-07-15T08:09:01;4.95;;;1.35;;
4021;SDS011;2025;48.260;16.432;2022-07-15T08:11:31;4.80;;;1.20;;
4021;SDS011;2025;48.260;16.432;2022-07-15T08:13:58;3.13;;;1.10;;
4021;SDS011;2025;48.260;16.432;2022-07-15T08:16:42;1.98;;;1.00;;
4021;SDS011;2025;48.260;16.432;2022-07-15T08:19:11;3.92;;;0.90;;
4021;SDS011;2025;48.260;16.432;2022-07-15T08:21:40;1.90;;;1.13;;
4021;SDS011;2025;48.260;16.432;2022-07-15T08:24:19;3.97;;;1.08;;
4021;SDS011;2025;48.260;16.432;2022-07-15T08:26:49;2.92;;;1.00;;
4021;SDS011;2025;48.260;16.432;2022-07-15T08:29:39;2.72;;;1.23;;
4021;SDS011;2025;48.260;16.432;2022-07-15T08:32:08;3.50;;;1.50;;
4021;SDS011;2025;48.260;16.432;2022-07-15T08:34:35;3.88;;;1.20;;
4021;SDS011;2025;48.260;16.432;2022-07-15T08:37:09;3.47;;;0.98;;
4021;SDS011;2025;48.260;16.432;2022-07-15T08:39:41;3.15;;;1.10;;
4021;SDS011;2025;48.260;16.432;2022-07-15T08:42:10;2.10;;;1.10;;
4021;SDS011;2025;48.260;16.432;2022-07-15T08:44:38;4.40;;;1.08;;
4021;SDS011;2025;48.260;16.432;2022-07-15T08:47:05;3.10;;;1.30;;
4021;SDS011;2025;48.260;16.432;2022-07-15T08:49:33;2.20;;;1.08;;
4021;SDS011;2025;48.260;16.432;2022-07-15T08:52:04;2.97;;;1.48;;
4021;SDS011;2025;48.260;16.432;2022-07-15T08:54:32;5.53;;;2.03;;
4021;SDS011;2025;48.260;16.432;2022-07-15T09:00:06;2.72;;;0.90;;
4021;SDS011;2025;48.260;16.432;2022-07-15T09:02:41;2.67;;;1.02;;
4021;SDS011;2025;48.260;16.432;2022-07-15T09:05:22;2.47;;;1.00;;
4021;SDS011;2025;48.260;16.432;2022-07-15T09:07:56;2.38;;;1.00;;
4021;SDS011;2025;48.260;16.432;2022-07-15T09:10:38;2.45;;;1.20;;
4021;SDS011;2025;48.260;16.432;2022-07-15T09:13:24;4.32;;;1.30;;
4021;SDS011;2025;48.260;16.432;2022-07-15T09:15:55;3.03;;;1.05;;
4021;SDS011;2025;48.260;16.432;2022-07-15T09:18:29;3.58;;;1.10;;
4021;SDS011;2025;48.260;16.432;2022-07-15T09:20:58;7.30;;;1.30;;
4021;SDS011;2025;48.260;16.432;2022-07-15T09:23:27;2.30;;;1.10;;
4021;SDS011;2025;48.260;16.432;2022-07-15T09:26:00;2.38;;;1.00;;
4021;SDS011;2025;48.260;16.432;2022-07-15T09:28:55;1.75;;;1.00;;
4021;SDS011;2025;48.260;16.432;2022-07-15T09:31:36;3.22;;;1.50;;
4021;SDS011;2025;48.260;16.432;2022-07-15T09:34:22;2.75;;;1.08;;
4021;SDS011;2025;48.260;16.432;2022-07-15T09:36:51;1.40;;;1.15;;
4021;SDS011;2025;48.260;16.432;2022-07-15T09:39:19;4.72;;;1.20;;
4021;SDS011;2025;48.260;16.432;2022-07-15T09:41:47;2.65;;;1.20;;
4021;SDS011;2025;48.260;16.432;2022-07-15T09:44:17;3.67;;;1.20;;
4021;SDS011;2025;48.260;16.432;2022-07-15T09:46:45;4.30;;;1.33;;
4021;SDS011;2025;48.260;16.432;2022-07-15T09:49:16;3.47;;;1.30;;
4021;SDS011;2025;48.260;16.432;2022-07-15T09:51:47;6.90;;;1.20;;
4021;SDS011;2025;48.260;16.432;2022-07-15T09:54:15;7.15;;;1.20;;
4021;SDS011;2025;48.260;16.432;2022-07-15T09:56:44;4.65;;;1.23;;
4021;SDS011;2025;48.260;16.432;2022-07-15T09:59:12;2.58;;;1.20;;
4021;SDS011;2025;48.260;16.432;2022-07-15T10:01:41;1.48;;;1.20;;
4021;SDS011;2025;48.260;16.432;2022-07-15T10:04:13;4.43;;;1.38;;
4021;SDS011;2025;48.260;16.432;2022-07-15T10:06:41;2.58;;;1.17;;
4021;SDS011;2025;48.260;16.432;2022-07-15T10:09:09;3.60;;;1.10;;
4021;SDS011;2025;48.260;16.432;2022-07-15T10:11:37;3.58;;;1.40;;
4021;SDS011;2025;48.260;16.432;2022-07-15T10:23:32;3.75;;;1.05;;
4021;SDS011;2025;48.260;16.432;2022-07-15T10:26:25;2.30;;;1.20;;
4021;SDS011;2025;48.260;16.432;2022-07-15T10:29:07;2.05;;;1.40;;
4021;SDS011;2025;48.260;16.432;2022-07-15T10:31:36;2.25;;;1.25;;
4021;SDS011;2025;48.260;16.432;2022-07-15T10:34:17;2.58;;;1.13;;
4021;SDS011;2025;48.260;16.432;2022-07-15T10:36:55;2.15;;;1.30;;
4021;SDS011;2025;48.260;16.432;2022-07-15T10:39:25;1.10;;;1.00;;
4021;SDS011;2025;48.260;16.432;2022-07-15T10:42:03;2.55;;;1.20;;
4021;SDS011;2025;48.260;16.432;2022-07-15T10:44:32;1.40;;;1.00;;
4021;SDS011;2025;48.260;16.432;2022-07-15T10:47:16;3.13;;;1.20;;
4021;SDS011;2025;48.260;16.432;2022-07-15T10:49:45;1.73;;;1.10;;
4021;SDS011;2025;48.260;16.432;2022-07-15T10:52:14;2.95;;;1.20;;
4021;SDS011;2025;48.260;16.432;2022-07-15T10:54:49;1.75;;;1.10;;
4021;SDS011;2025;48.260;16.432;2022-07-15T10:57:17;3.17;;;1.25;;
4021;SDS011;2025;48.260;16.432;2022-07-15T10:59:49;2.08;;;1.30;;
4021;SDS011;2025;48.260;16.432;2022-07-15T11:02:21;2.10;;;1.30;;
4021;SDS011;2025;48.260;16.432;2022-07-15T11:04:51;3.55;;;1.30;;
4021;SDS011;2025;48.260;16.432;2022-07-15T11:07:26;3.13;;;1.17;;
4021;SDS011;2025;48.260;16.432;2022-07-15T11:09:56;2.28;;;1.10;;
4021;SDS011;2025;48.260;16.432;2022-07-15T11:12:59;8.73;;;1.38;;
4021;SDS011;2025;48.260;16.432;2022-07-15T11:15:29;2.17;;;1.30;;
4021;SDS011;2025;48.260;16.432;2022-07-15T11:17:57;6.78;;;1.20;;
4021;SDS011;2025;48.260;16.432;2022-07-15T11:20:35;2.45;;;1.50;;
4021;SDS011;2025;48.260;16.432;2022-07-15T11:23:05;2.57;;;1.30;;
4021;SDS011;2025;48.260;16.432;2022-07-15T11:25:33;3.35;;;1.17;;
4021;SDS011;2025;48.260;16.432;2022-07-15T11:28:06;4.13;;;1.42;;
4021;SDS011;2025;48.260;16.432;2022-07-15T11:30:35;3.03;;;1.25;;
4021;SDS011;2025;48.260;16.432;2022-07-15T11:33:06;3.37;;;1.30;;
4021;SDS011;2025;48.260;16.432;2022-07-15T11:35:43;2.65;;;1.17;;
4021;SDS011;2025;48.260;16.432;2022-07-15T11:38:12;6.50;;;1.50;;
4021;SDS011;2025;48.260;16.432;2022-07-15T11:40:42;3.67;;;1.50;;
4021;SDS011;2025;48.260;16.432;2022-07-15T11:43:28;1.40;;;1.23;;
4021;SDS011;2025;48.260;16.432;2022-07-15T11:46:13;4.40;;;1.40;;
4021;SDS011;2025;48.260;16.432;2022-07-15T11:48:40;6.18;;;1.38;;
4021;SDS011;2025;48.260;16.432;2022-07-15T11:51:09;2.63;;;1.33;;
4021;SDS011;2025;48.260;16.432;2022-07-15T11:53:38;4.20;;;1.20;;
4021;SDS011;2025;48.260;16.432;2022-07-15T11:56:06;9.50;;;1.50;;
4021;SDS011;2025;48.260;16.432;2022-07-15T11:58:34;1.20;;;1.10;;
4021;SDS011;2025;48.260;16.432;2022-07-15T12:01:04;4.22;;;0.93;;
4021;SDS011;2025;48.260;16.432;2022-07-15T12:03:39;3.92;;;1.10;;
4021;SDS011;2025;48.260;16.432;2022-07-15T12:06:13;4.63;;;1.35;;
4021;SDS011;2025;48.260;16.432;2022-07-15T12:08:42;3.35;;;1.35;;
4021;SDS011;2025;48.260;16.432;2022-07-15T12:11:15;2.85;;;1.30;;
4021;SDS011;2025;48.260;16.432;2022-07-15T12:13:46;2.65;;;1.17;;
4021;SDS011;2025;48.260;16.432;2022-07-15T12:16:18;3.38;;;1.20;;
4021;SDS011;2025;48.260;16.432;2022-07-15T12:18:47;3.45;;;1.38;;
4021;SDS011;2025;48.260;16.432;2022-07-15T12:21:17;1.27;;;1.17;;
4021;SDS011;2025;48.260;16.432;2022-07-15T12:23:57;3.00;;;1.45;;
4021;SDS011;2025;48.260;16.432;2022-07-15T12:26:30;5.05;;;1.33;;
4021;SDS011;2025;48.260;16.432;2022-07-15T12:28:58;4.05;;;1.30;;
4021;SDS011;2025;48.260;16.432;2022-07-15T12:31:27;3.38;;;1.55;;
4021;SDS011;2025;48.260;16.432;2022-07-15T12:33:55;5.00;;;1.23;;
4021;SDS011;2025;48.260;16.432;2022-07-15T12:36:30;2.10;;;1.30;;
4021;SDS011;2025;48.260;16.432;2022-07-15T12:39:09;3.95;;;1.50;;
4021;SDS011;2025;48.260;16.432;2022-07-15T12:41:39;7.28;;;1.50;;
4021;SDS011;2025;48.260;16.432;2022-07-15T12:44:07;2.20;;;1.23;;
4021;SDS011;2025;48.260;16.432;2022-07-15T12:46:48;2.20;;;1.50;;
4021;SDS011;2025;48.260;16.432;2022-07-15T12:49:39;4.50;;;1.30;;
4021;SDS011;2025;48.260;16.432;2022-07-15T12:55:15;3.60;;;1.30;;
4021;SDS011;2025;48.260;16.432;2022-07-15T12:57:44;1.38;;;1.23;;
4021;SDS011;2025;48.260;16.432;2022-07-15T13:00:11;3.65;;;1.50;;
4021;SDS011;2025;48.260;16.432;2022-07-15T13:05:38;2.28;;;1.13;;
4021;SDS011;2025;48.260;16.432;2022-07-15T13:08:12;1.88;;;1.52;;
4021;SDS011;2025;48.260;16.432;2022-07-15T13:10:43;1.98;;;1.17;;
4021;SDS011;2025;48.260;16.432;2022-07-15T13:13:12;2.10;;;1.30;;
4021;SDS011;2025;48.260;16.432;2022-07-15T13:15:41;1.52;;;1.42;;
4021;SDS011;2025;48.260;16.432;2022-07-15T13:18:12;3.42;;;1.30;;
4021;SDS011;2025;48.260;16.432;2022-07-15T13:20:40;1.75;;;1.45;;
4021;SDS011;2025;48.260;16.432;2022-07-15T13:23:08;1.63;;;1.40;;
4021;SDS011;2025;48.260;16.432;2022-07-15T13:25:36;2.03;;;1.58;;
4021;SDS011;2025;48.260;16.432;2022-07-15T13:28:06;4.63;;;1.30;;
4021;SDS011;2025;48.260;16.432;2022-07-15T13:30:34;3.00;;;1.40;;
4021;SDS011;2025;48.260;16.432;2022-07-15T13:33:02;2.78;;;1.67;;
4021;SDS011;2025;48.260;16.432;2022-07-15T13:35:29;2.17;;;1.70;;
4021;SDS011;2025;48.260;16.432;2022-07-15T13:37:56;4.03;;;1.90;;
4021;SDS011;2025;48.260;16.432;2022-07-15T13:40:25;5.97;;;1.50;;
4021;SDS011;2025;48.260;16.432;2022-07-15T13:42:54;2.90;;;1.30;;
4021;SDS011;2025;48.260;16.432;2022-07-15T13:45:21;2.55;;;1.42;;
4021;SDS011;2025;48.260;16.432;2022-07-15T13:47:49;1.88;;;1.63;;
4021;SDS011;2025;48.260;16.432;2022-07-15T13:50:16;1.83;;;1.63;;
4021;SDS011;2025;48.260;16.432;2022-07-15T13:53:00;3.47;;;1.55;;
4021;SDS011;2025;48.260;16.432;2022-07-15T13:55:28;1.80;;;1.70;;
4021;SDS011;2025;48.260;16.432;2022-07-15T13:57:57;2.05;;;1.77;;
4021;SDS011;2025;48.260;16.432;2022-07-15T14:00:24;3.25;;;1.52;;
4021;SDS011;2025;48.260;16.432;2022-07-15T14:02:52;3.00;;;1.63;;
4021;SDS011;2025;48.260;16.432;2022-07-15T14:05:20;5.97;;;2.00;;
4021;SDS011;2025;48.260;16.432;2022-07-15T14:07:48;4.38;;;1.77;;
4021;SDS011;2025;48.260;16.432;2022-07-15T14:10:15;2.08;;;1.60;;
4021;SDS011;2025;48.260;16.432;2022-07-15T14:12:44;2.58;;;1.92;;
4021;SDS011;2025;48.260;16.432;2022-07-15T14:15:13;1.92;;;1.80;;
4021;SDS011;2025;48.260;16.432;2022-07-15T14:17:40;2.97;;;1.80;;
4021;SDS011;2025;48.260;16.432;2022-07-15T14:20:07;6.35;;;1.80;;
4021;SDS011;2025;48.260;16.432;2022-07-15T14:22:34;2.00;;;1.90;;
4021;SDS011;2025;48.260;16.432;2022-07-15T14:25:01;3.95;;;2.10;;
4021;SDS011;2025;48.260;16.432;2022-07-15T14:27:29;2.40;;;2.03;;
4021;SDS011;2025;48.260;16.432;2022-07-15T14:29:56;4.50;;;2.10;;
4021;SDS011;2025;48.260;16.432;2022-07-15T14:32:25;5.10;;;1.60;;
4021;SDS011;2025;48.260;16.432;2022-07-15T14:34:52;2.42;;;2.08;;
4021;SDS011;2025;48.260;16.432;2022-07-15T14:37:19;5.20;;;2.00;;
4021;SDS011;2025;48.260;16.432;2022-07-15T14:39:46;3.35;;;1.95;;
4021;SDS011;2025;48.260;16.432;2022-07-15T14:42:13;3.58;;;2.10;;
4021;SDS011;2025;48.260;16.432;2022-07-15T14:44:40;2.80;;;2.13;;
4021;SDS011;2025;48.260;16.432;2022-07-15T14:47:07;2.72;;;2.20;;
4021;SDS011;2025;48.260;16.432;2022-07-15T14:49:35;2.20;;;2.00;;
4021;SDS011;2025;48.260;16.432;2022-07-15T14:52:02;3.60;;;2.10;;
4021;SDS011;2025;48.260;16.432;2022-07-15T14:54:30;4.78;;;2.15;;
4021;SDS011;2025;48.260;16.432;2022-07-15T14:56:57;2.75;;;2.08;;
4021;SDS011;2025;48.260;16.432;2022-07-15T14:59:23;5.38;;;2.03;;
4021;SDS011;2025;48.260;16.432;2022-07-15T15:01:50;2.72;;;1.92;;
4021;SDS011;2025;48.260;16.432;2022-07-15T15:04:18;6.45;;;2.00;;
4021;SDS011;2025;48.260;16.432;2022-07-15T15:06:47;2.03;;;1.80;;
4021;SDS011;2025;48.260;16.432;2022-07-15T15:09:14;1.77;;;1.67;;
4021;SDS011;2025;48.260;16.432;2022-07-15T15:11:41;2.65;;;1.80;;
4021;SDS011;2025;48.260;16.432;2022-07-15T15:14:08;2.30;;;2.10;;
4021;SDS011;2025;48.260;16.432;2022-07-15T15:16:35;4.55;;;1.77;;
4021;SDS011;2025;48.260;16.432;2022-07-15T15:19:02;1.88;;;1.75;;
4021;SDS011;2025;48.260;16.432;2022-07-15T15:21:29;3.08;;;1.80;;
4021;SDS011;2025;48.260;16.432;2022-07-15T15:23:58;4.53;;;2.00;;
4021;SDS011;2025;48.260;16.432;2022-07-15T15:26:27;2.20;;;2.00;;
4021;SDS011;2025;48.260;16.432;2022-07-15T15:28:54;1.98;;;1.88;;
4021;SDS011;2025;48.260;16.432;2022-07-15T15:31:22;3.30;;;1.73;;
4021;SDS011;2025;48.260;16.432;2022-07-15T15:33:51;4.53;;;1.98;;
4021;SDS011;2025;48.260;16.432;2022-07-15T15:36:18;3.10;;;1.90;;
4021;SDS011;2025;48.260;16.432;2022-07-15T15:38:45;2.35;;;2.15;;
4021;SDS011;2025;48.260;16.432;2022-07-15T15:41:14;3.47;;;1.80;;